Time;durP1;ratioP1;P1;durP2;ratioP2;P2;SDS_P1;SDS_P2;PMS_P1;PMS_P2;Temp;Humidity;BMP_temperature;BMP_pressure;BME280_temperature;BME280_humidity;BME280_pressure;Samples;Min_cycle;Max_cycle;Signal;HPM_P1;HPM_P2
2022/07/22 00:02:13;;;;;;;;;8.60;6.00;;;;;17.71;79.56;100299.63;5120427;28;8903;-63
2022/07/22 00:04:41;;;;;;;;;10.40;9.80;;;;;17.71;79.58;100304.16;5120920;28;9748;-64
2022/07/22 00:07:09;;;;;;;;;9.00;9.00;;;;;17.71;79.33;100306.84;5120812;28;8850;-63
2022/07/22 00:09:36;;;;;;;;;9.60;8.60;;;;;17.70;79.42;100314.06;5120494;28;8820;-63
2022/07/22 00:12:04;;;;;;;;;7.00;6.60;;;;;17.69;79.41;100306.97;5120754;28;8824;-66
2022/07/22 00:14:32;;;;;;;;;7.80;6.80;;;;;17.71;79.14;100314.91;5120875;28;8831;-63
2022/07/22 00:17:00;;;;;;;;;6.60;3.80;;;;;17.71;79.28;100323.00;5120922;28;8971;-64
2022/07/22 00:19:28;;;;;;;;;7.60;6.20;;;;;17.70;79.29;100313.22;5120977;28;8827;-64
2022/07/22 00:21:56;;;;;;;;;8.40;6.60;;;;;17.70;78.92;100313.22;5103670;28;8822;-64
2022/07/22 00:24:24;;;;;;;;;6.40;6.40;;;;;17.70;79.48;100314.06;5099765;28;8850;-64
2022/07/22 00:26:51;;;;;;;;;6.00;5.60;;;;;17.69;78.95;100309.69;5100258;28;8833;-64
2022/07/22 00:29:19;;;;;;;;;7.00;6.40;;;;;17.70;79.41;100308.69;5099612;28;8872;-63
2022/07/22 00:31:47;;;;;;;;;5.60;5.60;;;;;17.67;79.46;100314.38;5099638;28;8982;-63
2022/07/22 00:34:14;;;;;;;;;3.20;3.20;;;;;17.64;79.31;100313.84;5099793;28;8838;-64
2022/07/22 00:36:43;;;;;;;;;5.40;3.80;;;;;17.58;79.36;100312.66;5099030;28;8814;-63
2022/07/22 00:39:10;;;;;;;;;3.00;3.00;;;;;17.56;79.10;100322.75;5099055;28;8837;-64
2022/07/22 00:41:38;;;;;;;;;2.60;2.60;;;;;17.54;79.26;100308.56;5098989;28;8841;-63
2022/07/22 00:44:06;;;;;;;;;4.00;3.00;;;;;17.54;79.52;100307.72;5099172;28;8911;-63
2022/07/22 00:46:34;;;;;;;;;4.40;4.00;;;;;17.51;79.53;100311.59;5099073;28;8830;-63
2022/07/22 00:49:02;;;;;;;;;3.00;3.00;;;;;17.49;79.45;100308.22;5099374;28;8842;-63
2022/07/22 00:51:29;;;;;;;;;2.60;2.20;;;;;17.48;79.33;100308.34;5099060;28;8837;-64
2022/07/22 00:53:58;;;;;;;;;1.00;1.00;;;;;17.46;79.26;100311.19;5098409;28;9554;-67
2022/07/22 00:56:27;;;;;;;;;3.80;3.00;;;;;17.44;79.46;100305.13;5098761;28;8830;-63
2022/07/22 00:58:54;;;;;;;;;2.20;2.20;;;;;17.43;80.05;100306.13;5110021;28;8950;-63
2022/07/22 01:01:23;;;;;;;;;3.00;3.00;;;;;17.44;79.52;100312.34;5118950;28;8882;-63
2022/07/22 01:03:51;;;;;;;;;2.60;2.60;;;;;17.44;79.67;100313.22;5118932;28;8836;-64
2022/07/22 01:06:27;;;;;;;;;3.20;3.00;;;;;17.45;79.75;100309.50;5118589;28;8985;-63
2022/07/22 01:08:55;;;;;;;;;1.00;1.00;;;;;17.45;79.50;100308.69;5118502;28;8850;-64
2022/07/22 01:11:23;;;;;;;;;3.00;2.20;;;;;17.45;79.14;100309.50;5119192;28;8828;-63
2022/07/22 01:13:51;;;;;;;;;4.40;3.40;;;;;17.46;79.68;100311.19;5118365;28;8820;-63
2022/07/22 01:16:19;;;;;;;;;3.00;3.00;;;;;17.45;79.41;100303.28;5119345;28;8842;-63
2022/07/22 01:18:47;;;;;;;;;4.00;3.40;;;;;17.46;79.05;100311.19;5118627;28;8974;-66
2022/07/22 01:21:15;;;;;;;;;4.00;3.60;;;;;17.48;79.78;100309.19;5118408;28;8940;-64
2022/07/22 01:23:42;;;;;;;;;6.00;4.80;;;;;17.49;78.51;100313.59;5117951;28;8849;-64
2022/07/22 01:26:10;;;;;;;;;8.20;8.20;;;;;17.47;79.12;100312.88;5118357;28;8959;-63
2022/07/22 01:28:38;;;;;;;;;6.60;5.60;;;;;17.49;78.78;100305.53;5105308;28;8826;-64
2022/07/22 01:31:06;;;;;;;;;7.00;5.20;;;;;17.49;78.82;100310.91;5098157;28;8850;-63
2022/07/22 01:33:34;;;;;;;;;9.20;6.20;;;;;17.48;78.98;100311.88;5098659;28;8834;-64
2022/07/22 01:36:01;;;;;;;;;7.40;7.00;;;;;17.50;78.60;100317.13;5098621;28;8834;-64
2022/07/22 01:38:29;;;;;;;;;7.20;4.80;;;;;17.49;78.97;100308.22;5099409;28;8903;-63
2022/07/22 01:40:57;;;;;;;;;7.40;7.00;;;;;17.48;79.21;100314.56;5098924;28;8860;-63
2022/07/22 01:43:25;;;;;;;;;5.60;4.00;;;;;17.47;79.09;100322.81;5098714;28;9600;-63
2022/07/22 01:45:53;;;;;;;;;8.80;6.80;;;;;17.45;79.18;100314.91;5098709;28;8918;-64
2022/07/22 01:48:21;;;;;;;;;7.80;6.40;;;;;17.43;78.95;100305.28;5098491;28;8830;-64
2022/07/22 01:50:49;;;;;;;;;3.00;3.00;;;;;17.40;78.76;100309.13;5098563;28;8838;-63
2022/07/22 01:53:17;;;;;;;;;4.00;3.20;;;;;17.40;78.75;100314.50;5098582;28;9515;-64
2022/07/22 01:55:44;;;;;;;;;4.00;3.60;;;;;17.38;79.22;100311.13;5098494;28;8849;-63
2022/07/22 01:58:12;;;;;;;;;3.60;3.00;;;;;17.38;78.74;100315.69;5106446;28;8906;-63
2022/07/22 02:00:40;;;;;;;;;3.00;1.40;;;;;17.35;79.46;100318.66;5118051;28;8852;-63
2022/07/22 02:03:08;;;;;;;;;3.60;3.20;;;;;17.32;79.31;100314.41;5119388;28;9627;-66
2022/07/22 02:05:36;;;;;;;;;2.20;2.20;;;;;17.31;78.73;100318.09;5118733;28;8897;-63
2022/07/22 02:08:05;;;;;;;;;3.20;3.00;;;;;17.32;78.62;100310.88;5119315;28;8832;-64
2022/07/22 02:10:33;;;;;;;;;2.60;2.60;;;;;17.29;78.76;100314.72;5119142;28;8930;-64
2022/07/22 02:13:00;;;;;;;;;4.00;1.80;;;;;17.27;79.04;100311.34;5117331;28;8888;-64
2022/07/22 02:15:28;;;;;;;;;2.20;2.20;;;;;17.24;79.23;100318.91;5119766;28;8828;-64
2022/07/22 02:17:56;;;;;;;;;3.00;3.00;;;;;17.21;79.09;100316.50;5119535;28;8846;-64
2022/07/22 02:20:24;;;;;;;;;1.00;1.00;;;;;17.19;79.67;100313.97;5119528;28;8800;-64
2022/07/22 02:22:52;;;;;;;;;3.80;3.00;;;;;17.18;79.21;100320.38;5119219;28;8839;-64
2022/07/22 02:25:20;;;;;;;;;3.00;3.00;;;;;17.16;79.06;100314.28;5119253;28;8832;-63
2022/07/22 02:27:48;;;;;;;;;3.40;3.40;;;;;17.16;79.15;100316.97;5114005;28;8830;-64
2022/07/22 02:30:16;;;;;;;;;4.40;4.40;;;;;17.15;79.21;100320.66;5122447;27;8830;-64
2022/07/22 02:32:43;;;;;;;;;3.40;3.20;;;;;17.14;79.68;100321.66;5139443;27;9486;-64
2022/07/22 02:35:11;;;;;;;;;4.00;3.00;;;;;17.13;79.07;100325.38;5139616;27;8834;-64
2022/07/22 02:37:39;;;;;;;;;4.00;4.00;;;;;17.14;78.99;100320.81;5138841;27;8906;-64
2022/07/22 02:40:09;;;;;;;;;7.00;6.00;;;;;17.17;79.13;100323.22;5138918;27;8840;-64
2022/07/22 02:42:36;;;;;;;;;3.00;3.00;;;;;17.16;79.56;100326.91;5139562;27;8826;-64
2022/07/22 02:45:04;;;;;;;;;4.00;3.40;;;;;17.17;78.75;100321.34;5139035;27;8822;-63
2022/07/22 02:47:32;;;;;;;;;3.00;2.60;;;;;17.18;78.87;100317.69;5138831;27;9603;-63
2022/07/22 02:50:00;;;;;;;;;5.60;5.60;;;;;17.19;78.66;100315.81;5139368;27;8864;-64
2022/07/22 02:52:28;;;;;;;;;4.00;3.80;;;;;17.22;78.87;100308.28;5138973;27;8910;-63
2022/07/22 02:54:56;;;;;;;;;4.40;4.00;;;;;17.24;78.55;100311.66;5138947;27;8818;-64
2022/07/22 02:57:25;;;;;;;;;5.60;4.00;;;;;17.24;78.98;100310.81;5133435;27;8816;-63
2022/07/22 02:59:52;;;;;;;;;4.40;4.00;;;;;17.24;78.39;100306.28;5117714;28;8840;-64
2022/07/22 03:02:20;;;;;;;;;5.20;4.80;;;;;17.25;78.68;100307.94;5118118;28;8828;-63
2022/07/22 03:04:48;;;;;;;;;3.60;3.60;;;;;17.27;78.21;100310.50;5117329;28;8859;-64
2022/07/22 03:07:18;;;;;;;;;4.80;4.80;;;;;17.27;78.65;100314.06;5118235;28;8812;-64
2022/07/22 03:09:46;;;;;;;;;6.60;6.00;;;;;17.29;78.37;100314.72;5118352;28;8828;-64
2022/07/22 03:12:14;;;;;;;;;6.00;6.00;;;;;17.31;78.12;100319.97;5118340;28;8851;-64
2022/07/22 03:14:41;;;;;;;;;4.00;4.00;;;;;17.32;78.00;100319.78;5118627;28;8820;-63
2022/07/22 03:17:10;;;;;;;;;5.20;4.40;;;;;17.34;78.25;100314.25;5118103;28;8844;-64
2022/07/22 03:19:38;;;;;;;;;6.60;6.00;;;;;17.34;78.21;100317.81;5117885;28;8904;-64
2022/07/22 03:22:06;;;;;;;;;7.00;6.60;;;;;17.35;78.22;100316.81;5118197;28;8854;-64
2022/07/22 03:24:34;;;;;;;;;4.00;4.00;;;;;17.42;77.82;100319.75;5117452;28;8840;-63
2022/07/22 03:27:02;;;;;;;;;7.60;6.80;;;;;17.43;78.03;100325.00;5116721;27;8824;-64
2022/07/22 03:29:29;;;;;;;;;9.20;7.40;;;;;17.43;78.05;100326.81;5116894;28;8852;-64
2022/07/22 03:31:57;;;;;;;;;7.80;6.40;;;;;17.41;77.79;100328.84;5099627;28;8866;-63
2022/07/22 03:34:25;;;;;;;;;8.20;7.40;;;;;17.40;77.97;100333.34;5097743;28;8849;-64
2022/07/22 03:36:53;;;;;;;;;9.40;8.60;;;;;17.37;78.16;100333.69;5096364;28;9526;-63
2022/07/22 03:39:21;;;;;;;;;9.40;7.00;;;;;17.38;77.87;100334.53;5096473;28;8834;-64
2022/07/22 03:41:49;;;;;;;;;9.00;9.00;;;;;17.37;77.69;100327.44;5080034;28;8927;-63
2022/07/22 03:44:17;;;;;;;;;6.20;5.80;;;;;17.36;78.27;100331.09;5097059;28;8842;-64
2022/07/22 03:46:45;;;;;;;;;9.20;6.60;;;;;17.38;78.17;100329.16;5097178;28;9546;-63
2022/07/22 03:49:13;;;;;;;;;4.00;4.00;;;;;17.37;78.40;100330.13;5097438;28;8841;-64
2022/07/22 03:51:41;;;;;;;;;4.40;3.60;;;;;17.35;77.80;100330.28;5097087;28;8830;-64
2022/07/22 03:54:08;;;;;;;;;5.80;5.60;;;;;17.34;77.91;100333.97;5097298;28;8849;-63
2022/07/22 03:56:36;;;;;;;;;3.40;3.40;;;;;17.30;77.75;100327.19;5097166;28;8833;-64
2022/07/22 03:59:04;;;;;;;;;3.20;3.00;;;;;17.28;78.34;100329.19;5117207;28;8847;-64
2022/07/22 04:01:32;;;;;;;;;3.00;2.60;;;;;17.28;78.45;100333.72;5117305;28;8820;-64
2022/07/22 04:04:00;;;;;;;;;3.20;3.00;;;;;17.28;77.95;100323.81;5117104;28;8835;-64
2022/07/22 04:06:31;;;;;;;;;1.00;1.00;;;;;17.29;77.90;100330.88;5118359;28;8816;-63
2022/07/22 04:08:59;;;;;;;;;4.00;3.80;;;;;17.31;77.47;100331.56;5117634;28;8840;-64
2022/07/22 04:11:27;;;;;;;;;2.60;2.60;;;;;17.33;77.98;100326.88;5117611;28;8832;-63
2022/07/22 04:13:55;;;;;;;;;3.40;3.40;;;;;17.35;77.62;100324.88;5117358;28;8832;-63
2022/07/22 04:16:22;;;;;;;;;3.40;3.40;;;;;17.38;77.50;100319.22;5119550;28;8852;-63
2022/07/22 04:18:51;;;;;;;;;2.40;2.20;;;;;17.39;77.38;100330.84;5120919;28;8823;-63
2022/07/22 04:21:19;;;;;;;;;3.00;3.00;;;;;17.40;77.48;100317.19;5121070;28;8900;-63
2022/07/22 04:23:46;;;;;;;;;4.20;3.80;;;;;17.42;78.13;100320.59;5121355;28;8824;-63
2022/07/22 04:26:14;;;;;;;;;1.80;1.00;;;;;17.41;77.93;100316.22;5120997;28;8828;-64
2022/07/22 04:28:44;;;;;;;;;1.00;1.00;;;;;17.40;78.13;100327.97;5103464;28;8814;-64
2022/07/22 04:31:12;;;;;;;;;1.40;1.40;;;;;17.39;77.40;100325.47;5099824;28;8865;-63
2022/07/22 04:33:40;;;;;;;;;4.40;4.00;;;;;17.37;77.38;100328.28;5099779;28;8836;-63
2022/07/22 04:36:08;;;;;;;;;3.00;3.00;;;;;17.35;77.34;100324.88;5100139;28;8938;-64
2022/07/22 04:38:36;;;;;;;;;3.80;3.20;;;;;17.33;77.50;100329.56;5108236;28;8835;-64
2022/07/22 04:41:04;;;;;;;;;4.40;3.80;;;;;17.31;77.89;100328.06;5120656;28;8866;-63
2022/07/22 04:43:31;;;;;;;;;3.00;3.00;;;;;17.30;78.11;100329.06;5120297;28;8912;-63
2022/07/22 04:45:59;;;;;;;;;3.60;3.00;;;;;17.30;77.64;100329.88;5121099;28;8843;-63
2022/07/22 04:48:28;;;;;;;;;3.00;3.00;;;;;17.33;77.78;100331.44;5103087;28;8828;-63
2022/07/22 04:50:56;;;;;;;;;4.00;3.40;;;;;17.33;77.24;100326.03;5120755;28;8835;-63
2022/07/22 04:53:24;;;;;;;;;9.20;6.80;;;;;17.32;77.37;100321.66;5119220;28;8824;-64
2022/07/22 04:56:11;;;;;;;;;6.20;5.60;;;;;17.31;77.18;100323.50;5118974;28;8854;-63
2022/07/22 04:58:41;;;;;;;;;6.00;5.60;;;;;17.30;77.54;100311.03;5119296;28;8936;-63
2022/07/22 05:01:08;;;;;;;;;3.80;3.60;;;;;17.34;77.82;100330.41;5119136;28;8851;-63
2022/07/22 05:03:36;;;;;;;;;4.80;3.40;;;;;17.35;77.76;100327.59;5118584;28;8824;-63
2022/07/22 05:06:04;;;;;;;;;6.60;5.20;;;;;17.38;77.21;100329.16;5119186;28;8836;-63
2022/07/22 05:08:33;;;;;;;;;5.20;3.00;;;;;17.40;77.09;100319.91;5112465;28;8891;-63
2022/07/22 05:11:01;;;;;;;;;5.20;5.20;;;;;17.41;77.53;100329.69;5100316;28;8834;-64
2022/07/22 05:13:28;;;;;;;;;4.00;3.20;;;;;17.43;76.75;100329.50;5100231;28;8826;-64
2022/07/22 05:15:56;;;;;;;;;5.60;3.60;;;;;17.44;77.22;100323.97;5099564;28;8840;-63
2022/07/22 05:18:24;;;;;;;;;3.80;3.60;;;;;17.45;76.96;100336.44;5099499;28;8895;-64
2022/07/22 05:20:52;;;;;;;;;5.60;5.20;;;;;17.45;76.81;100330.22;5100101;28;8898;-63
2022/07/22 05:23:20;;;;;;;;;4.00;4.00;;;;;17.46;76.96;100329.22;5099842;28;8822;-63
2022/07/22 05:25:48;;;;;;;;;3.40;3.40;;;;;17.48;76.98;100330.72;5099325;28;8834;-63
2022/07/22 05:28:16;;;;;;;;;3.60;3.00;;;;;17.51;76.82;100330.44;5098616;28;8926;-63
2022/07/22 05:30:43;;;;;;;;;5.20;3.40;;;;;17.53;76.86;100331.13;5099541;28;8878;-63
2022/07/22 05:33:11;;;;;;;;;6.00;3.80;;;;;17.55;76.43;100326.41;5099541;28;8822;-64
2022/07/22 05:35:39;;;;;;;;;3.20;3.20;;;;;17.57;76.28;100331.66;5099618;28;8837;-64
2022/07/22 05:38:08;;;;;;;;;3.20;3.00;;;;;17.59;76.69;100321.56;5108264;28;8820;-63
2022/07/22 05:40:35;;;;;;;;;3.00;3.00;;;;;17.60;76.78;100329.50;5119876;28;8824;-63
2022/07/22 05:43:03;;;;;;;;;3.80;3.00;;;;;17.63;76.81;100329.16;5120215;28;8844;-64
2022/07/22 05:45:31;;;;;;;;;3.00;2.20;;;;;17.65;76.81;100324.50;5119355;28;8824;-64
2022/07/22 05:48:00;;;;;;;;;3.20;3.20;;;;;17.72;76.24;100333.63;5119692;28;8831;-63
2022/07/22 05:50:28;;;;;;;;;3.20;3.00;;;;;17.80;76.15;100339.06;5119027;28;8896;-64
2022/07/22 05:52:56;;;;;;;;;3.80;3.20;;;;;17.82;76.15;100339.75;5118919;28;8836;-64
2022/07/22 05:55:24;;;;;;;;;3.20;2.60;;;;;17.87;76.14;100342.84;5119041;28;8888;-64
2022/07/22 05:57:52;;;;;;;;;4.40;4.00;;;;;17.92;75.60;100332.41;5118517;28;8847;-66
2022/07/22 06:00:20;;;;;;;;;4.40;3.00;;;;;17.99;75.61;100344.22;5118043;28;8921;-64
2022/07/22 06:02:48;;;;;;;;;3.00;2.20;;;;;18.05;75.98;100343.59;5117220;28;8820;-63
2022/07/22 06:05:15;;;;;;;;;4.80;4.80;;;;;18.08;75.27;100339.75;5117734;28;8839;-63
2022/07/22 06:08:03;;;;;;;;;6.00;5.20;;;;;18.13;75.55;100332.03;5108036;28;8870;-66
2022/07/22 06:10:31;;;;;;;;;4.20;3.80;;;;;18.14;74.99;100329.16;5098188;28;8830;-63
2022/07/22 06:12:58;;;;;;;;;3.00;3.00;;;;;18.13;75.62;100329.34;5098881;28;8818;-64
2022/07/22 06:15:26;;;;;;;;;3.40;3.40;;;;;18.11;75.16;100334.88;5098317;28;8826;-65
2022/07/22 06:17:54;;;;;;;;;4.60;4.00;;;;;18.10;75.31;100333.19;5098478;28;8968;-63
2022/07/22 06:20:22;;;;;;;;;3.00;1.80;;;;;18.11;75.36;100342.13;5097305;28;8911;-63
2022/07/22 06:22:50;;;;;;;;;4.80;4.80;;;;;18.13;75.25;100335.56;5097320;28;8943;-64
2022/07/22 06:25:18;;;;;;;;;6.80;3.80;;;;;18.18;75.24;100329.69;5097788;28;8838;-64
2022/07/22 06:28:06;;;;;;;;;3.00;3.00;;;;;18.23;74.93;100333.59;5097451;28;8862;-64
2022/07/22 06:30:33;;;;;;;;;5.20;4.00;;;;;18.28;74.82;100330.44;5097876;28;8866;-64
2022/07/22 06:33:01;;;;;;;;;4.20;3.00;;;;;18.36;75.16;100334.03;5097556;28;8914;-64
2022/07/22 06:35:29;;;;;;;;;6.00;5.20;;;;;18.44;75.22;100336.75;5097592;28;8875;-65
2022/07/22 06:37:58;;;;;;;;;2.60;1.00;;;;;18.48;74.22;100339.97;5106717;28;8820;-64
2022/07/22 06:40:33;;;;;;;;;5.20;5.20;;;;;18.51;74.61;100337.78;5117596;28;8912;-64
2022/07/22 06:43:02;;;;;;;;;3.40;1.80;;;;;18.58;74.43;100344.22;5117217;28;9510;-65
2022/07/22 06:45:36;;;;;;;;;5.20;3.40;;;;;18.64;74.69;100337.34;5116835;28;8867;-64
2022/07/22 06:48:04;;;;;;;;;3.20;2.20;;;;;18.69;74.43;100340.38;5117108;28;8912;-64
2022/07/22 06:50:31;;;;;;;;;7.60;6.20;;;;;18.71;74.40;100344.63;5117114;28;8840;-64
2022/07/22 06:52:59;;;;;;;;;10.60;9.40;;;;;18.63;74.28;100350.00;5117194;28;8908;-64
2022/07/22 06:55:28;;;;;;;;;6.60;5.20;;;;;18.54;74.24;100342.88;5116557;28;8844;-64
2022/07/22 06:57:56;;;;;;;;;5.80;3.80;;;;;18.46;74.90;100344.69;5116753;28;8923;-63
2022/07/22 07:00:23;;;;;;;;;4.00;4.00;;;;;18.37;75.18;100346.50;5116697;28;8856;-64
2022/07/22 07:02:51;;;;;;;;;3.00;2.20;;;;;18.32;75.51;100345.28;5116642;28;8848;-64
2022/07/22 07:05:39;;;;;;;;;3.00;1.00;;;;;18.24;75.23;100348.78;5116961;28;8847;-63
2022/07/22 07:08:08;;;;;;;;;1.00;1.00;;;;;18.16;75.43;100348.75;5105344;28;8830;-63
2022/07/22 07:10:36;;;;;;;;;2.60;2.60;;;;;18.08;75.75;100350.53;5095985;28;9777;-63
2022/07/22 07:13:03;;;;;;;;;1.40;1.40;;;;;18.02;75.95;100343.06;5097194;28;8910;-64
2022/07/22 07:15:31;;;;;;;;;1.00;1.00;;;;;17.98;76.16;100344.41;5097054;28;8918;-64
2022/07/22 07:17:59;;;;;;;;;1.80;1.40;;;;;17.92;75.79;100343.19;5096212;28;8826;-64
2022/07/22 07:20:27;;;;;;;;;1.00;1.00;;;;;17.93;75.48;100342.16;5095854;28;9592;-63
2022/07/22 07:22:55;;;;;;;;;2.00;1.40;;;;;17.97;75.67;100337.31;5095649;28;8826;-63
2022/07/22 07:25:23;;;;;;;;;3.00;1.00;;;;;18.02;75.11;100335.84;5095155;28;8849;-63
2022/07/22 07:27:52;;;;;;;;;3.80;3.00;;;;;18.04;75.58;100333.84;5095241;28;9243;-64
2022/07/22 07:30:21;;;;;;;;;2.60;1.00;;;;;18.06;75.59;100336.38;5095453;28;8901;-63
2022/07/22 07:32:49;;;;;;;;;2.20;2.20;;;;;18.07;75.09;100336.19;5096009;28;8927;-64
2022/07/22 07:35:17;;;;;;;;;1.00;1.00;;;;;18.09;75.56;100336.91;5096654;28;8841;-64
2022/07/22 07:37:45;;;;;;;;;0.60;0.00;;;;;18.08;75.13;100340.56;5106155;28;9493;-63
2022/07/22 07:40:13;;;;;;;;;1.00;1.00;;;;;18.08;75.42;100340.56;5116920;28;8851;-64
2022/07/22 07:42:41;;;;;;;;;0.20;0.20;;;;;18.04;75.48;100336.53;5115293;28;8897;-64
2022/07/22 07:45:15;;;;;;;;;1.00;1.00;;;;;18.04;75.58;100343.75;5116472;28;8970;-65
2022/07/22 07:47:49;;;;;;;;;3.00;2.20;;;;;18.06;75.45;100347.16;5096744;28;8834;-63
2022/07/22 07:50:17;;;;;;;;;3.00;3.00;;;;;18.06;75.13;100345.28;5096007;28;8830;-64
2022/07/22 07:52:47;;;;;;;;;1.80;1.80;;;;;18.10;75.05;100343.97;5099055;28;8850;-64
2022/07/22 07:55:19;;;;;;;;;1.00;1.00;;;;;18.11;74.77;100340.28;5098660;28;8960;-64
2022/07/22 07:57:48;;;;;;;;;1.00;1.00;;;;;18.16;75.19;100332.56;5099279;28;8826;-63
2022/07/22 08:00:17;;;;;;;;;3.40;3.00;;;;;18.24;74.70;100338.00;5099419;28;8858;-64
2022/07/22 08:02:45;;;;;;;;;2.60;1.80;;;;;18.31;73.98;100341.78;5098944;28;8844;-64
2022/07/22 08:05:13;;;;;;;;;4.00;3.00;;;;;18.38;74.37;100337.38;5099668;28;8914;-64
2022/07/22 08:07:42;;;;;;;;;3.20;1.40;;;;;18.49;74.26;100334.44;5107644;28;8843;-63
2022/07/22 08:10:10;;;;;;;;;2.60;1.80;;;;;18.58;73.64;100333.44;5120197;28;8843;-64
2022/07/22 08:12:59;;;;;;;;;1.40;1.40;;;;;18.62;73.32;100329.41;5119508;28;8912;-64
2022/07/22 08:15:27;;;;;;;;;3.00;3.00;;;;;18.62;73.99;100328.56;5119726;28;8844;-63
2022/07/22 08:17:55;;;;;;;;;4.00;4.00;;;;;18.65;73.71;100322.81;5120553;28;8840;-64
2022/07/22 08:20:22;;;;;;;;;3.00;3.00;;;;;18.71;73.49;100328.44;5119502;28;8828;-63
2022/07/22 08:22:50;;;;;;;;;1.80;1.00;;;;;18.73;73.47;100333.69;5119678;28;8920;-64
2022/07/22 08:25:18;;;;;;;;;2.60;1.40;;;;;18.78;73.79;100334.00;5120209;28;8929;-64
2022/07/22 08:27:46;;;;;;;;;3.60;3.60;;;;;18.84;73.10;100334.22;5115196;28;8845;-64
2022/07/22 08:30:14;;;;;;;;;6.40;4.40;;;;;18.89;72.94;100339.13;5097635;28;8862;-64
2022/07/22 08:32:42;;;;;;;;;6.00;4.00;;;;;18.93;73.34;100340.47;5099278;28;8950;-64
2022/07/22 08:35:10;;;;;;;;;9.40;6.00;;;;;18.92;73.38;100336.94;5098380;28;8841;-64
2022/07/22 08:37:38;;;;;;;;;6.80;5.60;;;;;18.89;73.51;100337.25;5098020;28;8829;-64
2022/07/22 08:40:06;;;;;;;;;7.00;6.00;;;;;18.91;73.34;100337.91;5098589;28;8884;-64
2022/07/22 08:42:34;;;;;;;;;8.60;3.40;;;;;18.93;73.18;100330.50;5098470;28;8865;-64
2022/07/22 08:45:01;;;;;;;;;5.80;5.20;;;;;18.94;72.62;100326.81;5098985;28;8934;-65
2022/07/22 08:47:34;;;;;;;;;6.40;6.40;;;;;18.98;73.00;100330.84;5098819;28;8834;-64
2022/07/22 08:50:08;;;;;;;;;6.80;6.20;;;;;19.00;72.70;100330.69;5101098;28;8838;-64
2022/07/22 08:52:36;;;;;;;;;6.60;6.20;;;;;19.05;73.05;100337.28;5100735;28;8845;-64
2022/07/22 08:55:03;;;;;;;;;4.00;4.00;;;;;19.15;72.39;100331.72;5101373;28;8830;-64
2022/07/22 08:57:32;;;;;;;;;7.00;6.60;;;;;19.21;72.33;100331.91;5104393;28;8854;-64
2022/07/22 09:00:00;;;;;;;;;9.80;9.20;;;;;19.24;72.71;100339.72;5101946;28;8888;-64
2022/07/22 09:02:27;;;;;;;;;8.60;7.00;;;;;19.26;72.08;100334.97;5100149;28;8814;-64
2022/07/22 09:04:57;;;;;;;;;9.00;8.60;;;;;19.31;71.66;100329.94;5108283;28;8812;-65
2022/07/22 09:07:26;;;;;;;;;5.80;3.20;;;;;19.34;71.92;100336.84;5122442;28;8896;-69
2022/07/22 09:09:53;;;;;;;;;7.00;7.00;;;;;19.36;71.82;100340.22;5120582;28;8851;-64
2022/07/22 09:12:22;;;;;;;;;7.00;6.40;;;;;19.43;72.10;100344.75;5120193;28;8928;-64
2022/07/22 09:14:50;;;;;;;;;6.40;6.40;;;;;19.49;72.04;100345.97;5118201;28;8841;-64
2022/07/22 09:17:20;;;;;;;;;7.20;7.20;;;;;19.50;71.97;100348.50;5118963;28;8835;-64
2022/07/22 09:19:48;;;;;;;;;6.40;6.40;;;;;19.53;72.00;100340.06;5122068;28;8909;-65
2022/07/22 09:22:16;;;;;;;;;9.80;6.80;;;;;19.58;71.33;100345.78;5121784;28;8912;-65
2022/07/22 09:24:44;;;;;;;;;6.00;5.80;;;;;19.59;71.35;100342.09;5120859;28;8877;-64
2022/07/22 09:27:12;;;;;;;;;6.00;4.40;;;;;19.64;71.73;100337.00;5121915;28;9399;-64
2022/07/22 09:29:39;;;;;;;;;6.00;6.00;;;;;19.67;71.28;100338.53;5121083;28;8836;-63
2022/07/22 09:32:08;;;;;;;;;8.00;6.60;;;;;19.72;71.61;100347.81;5140263;27;8914;-64
2022/07/22 09:34:37;;;;;;;;;7.80;5.40;;;;;19.73;71.38;100346.78;5141079;27;8830;-64
2022/07/22 09:37:05;;;;;;;;;5.40;5.40;;;;;19.72;70.91;100342.41;5143396;27;8822;-64
2022/07/22 09:39:33;;;;;;;;;8.40;7.20;;;;;19.64;71.49;100345.09;5139945;27;8829;-64
2022/07/22 09:42:01;;;;;;;;;7.80;7.00;;;;;19.62;71.40;100340.88;5140323;27;8919;-64
2022/07/22 09:44:29;;;;;;;;;4.40;4.00;;;;;19.63;71.13;100340.72;5139494;27;8826;-65
2022/07/22 09:46:57;;;;;;;;;6.80;5.80;;;;;19.65;70.97;100345.97;5140635;27;8858;-67
2022/07/22 09:49:24;;;;;;;;;7.00;6.60;;;;;19.68;71.11;100335.66;5139293;27;8842;-66
2022/07/22 09:51:52;;;;;;;;;6.00;4.40;;;;;19.73;70.84;100343.25;5139087;27;8846;-64
2022/07/22 09:54:20;;;;;;;;;10.00;7.40;;;;;19.73;71.06;100343.25;5137927;27;8915;-64
2022/07/22 09:56:48;;;;;;;;;9.60;8.20;;;;;19.71;71.18;100342.59;5133657;27;8855;-64
2022/07/22 09:59:16;;;;;;;;;7.00;7.00;;;;;19.71;70.98;100346.13;5116848;27;8901;-64
2022/07/22 10:01:43;;;;;;;;;7.00;6.60;;;;;19.69;71.10;100340.03;5116518;28;8828;-63
2022/07/22 10:04:11;;;;;;;;;7.60;5.80;;;;;19.69;70.74;100337.34;5115222;28;8874;-64
2022/07/22 10:06:40;;;;;;;;;7.60;5.40;;;;;19.66;71.07;100343.06;5114719;28;8843;-65
2022/07/22 10:09:07;;;;;;;;;7.00;5.20;;;;;19.66;71.05;100340.38;5116410;28;8847;-64
2022/07/22 10:11:44;;;;;;;;;10.00;7.60;;;;;19.69;71.37;100340.03;5116008;28;8844;-63
2022/07/22 10:14:12;;;;;;;;;6.20;6.20;;;;;19.70;70.84;100349.84;5116601;28;8832;-64
2022/07/22 10:16:48;;;;;;;;;7.80;6.80;;;;;19.72;70.70;100337.00;5117347;28;8839;-64
2022/07/22 10:19:16;;;;;;;;;7.20;6.80;;;;;19.79;70.80;100334.47;5115555;28;8861;-64
2022/07/22 10:21:44;;;;;;;;;7.00;7.00;;;;;19.93;70.47;100326.50;5114638;27;8944;-65
2022/07/22 10:24:12;;;;;;;;;7.20;7.20;;;;;20.13;69.77;100318.88;5116805;27;8823;-64
2022/07/22 10:26:40;;;;;;;;;5.40;5.40;;;;;20.24;69.42;100324.75;5128567;27;8840;-64
2022/07/22 10:29:08;;;;;;;;;6.60;4.60;;;;;20.37;69.46;100324.19;5133937;27;8864;-64
2022/07/22 10:31:35;;;;;;;;;7.40;7.40;;;;;20.51;68.77;100328.88;5135067;27;8930;-64
2022/07/22 10:34:04;;;;;;;;;5.00;5.00;;;;;20.65;68.64;100320.88;5135610;27;8849;-63
2022/07/22 10:36:32;;;;;;;;;5.80;5.00;;;;;20.68;68.78;100320.50;5134200;27;8838;-64
2022/07/22 10:39:00;;;;;;;;;5.40;4.40;;;;;20.70;68.33;100318.47;5134163;27;8876;-64
2022/07/22 10:41:27;;;;;;;;;7.40;5.40;;;;;20.79;68.85;100322.81;5134098;27;9780;-67
2022/07/22 10:43:55;;;;;;;;;4.80;3.60;;;;;20.78;68.36;100315.69;5134017;27;8837;-61
2022/07/22 10:46:23;;;;;;;;;6.60;5.00;;;;;20.75;68.59;100314.19;5133718;27;8914;-62
2022/07/22 10:48:51;;;;;;;;;5.40;4.80;;;;;20.75;68.38;100311.47;5134036;27;8818;-61
2022/07/22 10:51:20;;;;;;;;;7.00;5.80;;;;;20.74;68.21;100308.97;5135343;27;8838;-61
2022/07/22 10:53:48;;;;;;;;;4.20;4.20;;;;;20.67;68.45;100308.81;5117830;27;8812;-62
2022/07/22 10:56:16;;;;;;;;;5.00;5.00;;;;;20.63;69.11;100298.53;5115270;28;8839;-65
2022/07/22 10:58:44;;;;;;;;;5.40;4.60;;;;;20.65;68.42;100299.22;5115833;28;8863;-64
2022/07/22 11:01:12;;;;;;;;;5.80;5.00;;;;;20.61;68.73;100306.00;5114198;28;9733;-73
2022/07/22 11:03:41;;;;;;;;;2.40;2.40;;;;;20.65;68.71;100288.38;5113618;28;9950;-61
2022/07/22 11:06:09;;;;;;;;;5.80;5.80;;;;;20.74;68.51;100293.56;5114255;28;8962;-64
2022/07/22 11:08:37;;;;;;;;;4.60;4.40;;;;;20.83;68.13;100294.38;5114360;28;8852;-65
2022/07/22 11:11:05;;;;;;;;;4.20;4.00;;;;;20.96;67.90;100291.94;5113977;28;8844;-64
2022/07/22 11:13:33;;;;;;;;;5.80;4.40;;;;;21.01;67.77;100284.09;5114850;28;8827;-64
2022/07/22 11:16:01;;;;;;;;;8.00;5.60;;;;;21.04;67.51;100286.47;5116220;28;8923;-64
2022/07/22 11:18:29;;;;;;;;;8.00;7.60;;;;;21.07;67.97;100283.41;5115645;28;8832;-62
2022/07/22 11:20:57;;;;;;;;;9.60;9.20;;;;;21.14;67.59;100285.22;5115875;28;8856;-61
2022/07/22 11:23:25;;;;;;;;;5.40;4.60;;;;;21.24;67.12;100276.81;5132129;27;8822;-61
2022/07/22 11:25:53;;;;;;;;;7.00;7.00;;;;;21.34;66.62;100274.72;5137527;27;8810;-61
2022/07/22 11:28:21;;;;;;;;;6.20;5.80;;;;;21.36;67.00;100273.53;5138871;27;8841;-61
2022/07/22 11:30:49;;;;;;;;;6.20;6.20;;;;;21.43;66.93;100281.75;5131082;27;8840;-61
2022/07/22 11:33:17;;;;;;;;;9.60;8.60;;;;;21.45;66.52;100285.97;5119381;28;8820;-62
2022/07/22 11:35:48;;;;;;;;;7.40;7.40;;;;;21.46;66.69;100284.09;5119005;28;8832;-65
2022/07/22 11:38:16;;;;;;;;;9.00;8.60;;;;;21.46;66.89;100284.94;5118859;28;8840;-62
2022/07/22 11:40:44;;;;;;;;;6.20;6.20;;;;;21.46;66.89;100284.09;5119376;28;8855;-64